createdAt,value
2019-02-18T00:00:02.333Z,99.90
2019-02-18T00:02:33.980Z,99.90
2019-02-18T00:05:04.113Z,99.90
2019-02-18T00:07:34.213Z,95.00
2019-02-18T00:10:05.262Z,99.90
2019-02-18T00:12:35.700Z,99.10
2019-02-18T00:15:08.160Z,99.90
2019-02-18T00:17:38.280Z,99.90
2019-02-18T00:20:08.380Z,99.90
2019-02-18T00:22:38.753Z,99.20
2019-02-18T00:25:09.035Z,99.90
2019-02-18T00:27:40.186Z,99.90
2019-02-18T00:32:40.092Z,99.90
2019-02-18T00:37:40.380Z,99.90
2019-02-18T00:40:10.941Z,99.90
2019-02-18T00:42:41.173Z,99.90
2019-02-18T00:45:13.052Z,99.90
2019-02-18T00:47:43.272Z,99.90
2019-02-18T00:52:44.372Z,99.90
2019-02-18T00:55:14.454Z,99.90
2019-02-18T00:57:44.580Z,99.90
2019-02-18T01:00:18.179Z,99.90
2019-02-18T01:02:48.292Z,99.90
2019-02-18T01:05:18.394Z,99.90
2019-02-18T01:07:48.712Z,99.90
2019-02-18T01:10:19.074Z,99.90
2019-02-18T01:12:49.000Z,99.90
2019-02-18T01:15:21.452Z,99.90
2019-02-18T01:20:20.554Z,99.90
2019-02-18T01:22:50.780Z,99.90
2019-02-18T01:25:21.082Z,99.90
2019-02-18T01:27:51.313Z,99.90
2019-02-18T01:30:21.332Z,99.90
2019-02-18T01:32:51.541Z,99.90
2019-02-18T01:35:21.653Z,99.90
2019-02-18T01:37:51.992Z,99.90
2019-02-18T01:40:22.119Z,99.90
2019-02-18T01:42:52.621Z,99.90
2019-02-18T01:47:52.243Z,99.90
2019-02-18T01:50:22.273Z,99.90
2019-02-18T01:52:52.380Z,99.90
2019-02-18T01:55:22.540Z,99.90
2019-02-18T01:57:52.833Z,99.90
2019-02-18T02:00:23.032Z,99.90
2019-02-18T02:02:53.073Z,99.90
2019-02-18T02:05:23.272Z,99.90
2019-02-18T02:07:56.363Z,99.90
2019-02-18T02:10:25.812Z,99.90
2019-02-18T02:13:15.141Z,99.90
2019-02-18T02:15:45.315Z,99.90
2019-02-18T02:18:15.333Z,99.90
2019-02-18T02:20:45.640Z,99.90
2019-02-18T02:23:15.633Z,99.90
2019-02-18T02:25:45.938Z,99.90
2019-02-18T02:28:16.045Z,99.90
2019-02-18T02:30:46.513Z,99.90
2019-02-18T02:33:16.524Z,99.90
2019-02-18T02:35:46.821Z,99.90
2019-02-18T02:38:16.933Z,99.90
2019-02-18T02:40:48.574Z,99.90
2019-02-18T02:43:18.634Z,99.90
2019-02-18T02:45:48.861Z,99.90
2019-02-18T02:48:18.858Z,99.90
2019-02-18T02:50:48.993Z,99.90
2019-02-18T02:53:19.192Z,99.90
2019-02-18T02:55:49.703Z,99.90
2019-02-18T02:58:19.895Z,99.90
2019-02-18T03:00:50.072Z,99.90
2019-02-18T03:03:20.256Z,99.90
2019-02-18T03:05:51.509Z,99.90
2019-02-18T03:08:21.773Z,99.90
2019-02-18T03:10:52.192Z,99.90
2019-02-18T03:13:22.273Z,99.90
2019-02-18T03:15:52.401Z,99.90
2019-02-18T03:18:22.715Z,99.90
2019-02-18T03:20:52.973Z,99.90
2019-02-18T03:23:23.080Z,99.90
2019-02-18T03:28:45.613Z,99.90
2019-02-18T03:31:18.901Z,99.90
2019-02-18T03:33:55.374Z,99.90
2019-02-18T03:36:25.692Z,99.90
2019-02-18T03:38:55.840Z,99.90
2019-02-18T03:43:55.957Z,99.90
2019-02-18T03:46:26.195Z,99.90
2019-02-18T03:48:56.251Z,99.90
2019-02-18T03:51:26.317Z,99.90
2019-02-18T03:53:56.510Z,99.90
2019-02-18T03:56:26.648Z,99.90
2019-02-18T03:58:56.895Z,99.90
2019-02-18T04:01:27.088Z,99.90
2019-02-18T04:03:57.108Z,99.90
2019-02-18T04:06:27.251Z,99.90
2019-02-18T04:08:57.808Z,99.90
2019-02-18T04:11:27.966Z,99.90
2019-02-18T04:13:58.301Z,99.90
2019-02-18T04:16:28.589Z,99.90
2019-02-18T04:19:00.262Z,99.90
2019-02-18T04:21:30.712Z,99.90
2019-02-18T04:24:00.850Z,99.90
2019-02-18T04:26:31.014Z,99.90
2019-02-18T04:29:01.168Z,99.90
2019-02-18T04:31:31.360Z,99.90
2019-02-18T04:34:01.470Z,99.90
2019-02-18T04:36:32.041Z,99.90
2019-02-18T04:39:02.095Z,99.90
2019-02-18T04:41:33.818Z,99.90
2019-02-18T04:44:04.081Z,99.90
2019-02-18T04:46:34.138Z,95.70
2019-02-18T04:49:04.661Z,99.90
2019-02-18T04:51:35.117Z,99.90
2019-02-18T04:54:05.294Z,95.80
2019-02-18T04:56:35.644Z,99.90
2019-02-18T04:59:05.854Z,95.70
2019-02-18T05:01:36.203Z,99.90
2019-02-18T05:04:06.453Z,95.80
2019-02-18T05:06:38.051Z,99.90
2019-02-18T05:09:08.075Z,99.90
2019-02-18T05:11:38.140Z,99.90
2019-02-18T05:14:08.485Z,95.70
2019-02-18T05:19:08.533Z,99.90
2019-02-18T05:21:38.735Z,95.80
2019-02-18T05:24:09.096Z,99.90
2019-02-18T05:26:39.598Z,95.80
2019-02-18T05:29:10.003Z,99.90
2019-02-18T05:31:40.234Z,95.90
2019-02-18T05:34:10.262Z,99.90
2019-02-18T05:36:40.473Z,95.90
2019-02-18T05:39:17.964Z,99.90
2019-02-18T05:41:44.085Z,99.90
2019-02-18T05:44:14.059Z,99.90
2019-02-18T05:46:44.195Z,99.90
2019-02-18T05:49:14.259Z,99.90
2019-02-18T05:51:44.478Z,96.10
2019-02-18T05:54:14.564Z,96.20
2019-02-18T05:56:44.891Z,96.10
2019-02-18T05:59:14.971Z,96.10
2019-02-18T06:01:45.141Z,99.90
2019-02-18T06:04:15.245Z,99.90
2019-02-18T06:06:45.456Z,99.90
2019-02-18T06:09:15.486Z,99.90
2019-02-18T06:11:45.455Z,99.90
2019-02-18T06:14:15.534Z,99.90
2019-02-18T06:16:45.584Z,99.90
2019-02-18T06:19:15.602Z,99.90
2019-02-18T06:24:15.499Z,95.50
2019-02-18T06:26:45.644Z,99.90
2019-02-18T06:29:15.915Z,95.60
2019-02-18T06:31:45.954Z,99.90
2019-02-18T06:34:16.377Z,99.90
2019-02-18T06:36:46.724Z,95.80
2019-02-18T06:39:17.021Z,99.90
2019-02-18T06:41:47.128Z,99.90
2019-02-18T06:44:18.686Z,99.90
2019-02-18T06:46:50.276Z,99.90
2019-02-18T06:51:53.562Z,99.90
2019-02-18T06:54:23.735Z,99.90
2019-02-18T06:56:58.566Z,99.90
2019-02-18T06:59:30.263Z,99.90
2019-02-18T07:02:04.854Z,99.90
2019-02-18T07:04:39.178Z,99.90
2019-02-18T07:07:23.106Z,99.90
2019-02-18T07:09:55.042Z,99.90
2019-02-18T07:12:29.895Z,99.90
2019-02-18T07:14:59.845Z,99.90
2019-02-18T07:17:30.424Z,99.90
2019-02-18T07:20:01.597Z,99.90
2019-02-18T07:22:31.728Z,99.90
2019-02-18T07:25:01.775Z,99.90
2019-02-18T07:27:31.979Z,99.90
2019-02-18T07:30:01.960Z,99.90
2019-02-18T07:32:33.323Z,99.90
2019-02-18T07:35:03.611Z,99.90
2019-02-18T07:37:33.742Z,99.90
2019-02-18T07:40:04.063Z,99.90
2019-02-18T07:42:34.306Z,99.90
2019-02-18T07:45:05.407Z,99.90
2019-02-18T07:47:35.902Z,99.90
2019-02-18T07:50:08.781Z,99.90
2019-02-18T07:52:38.879Z,99.90
2019-02-18T07:55:09.438Z,99.90
2019-02-18T07:57:40.628Z,99.90
2019-02-18T08:00:13.537Z,99.90
2019-02-18T08:02:44.942Z,99.90
2019-02-18T08:05:16.199Z,99.90
2019-02-18T08:07:46.439Z,99.90
2019-02-18T08:10:16.833Z,91.20
2019-02-18T08:12:47.175Z,99.90
2019-02-18T08:15:18.450Z,99.90
2019-02-18T08:17:48.478Z,99.90
2019-02-18T08:20:18.637Z,90.70
2019-02-18T08:22:48.631Z,99.00
2019-02-18T08:25:18.676Z,89.80
2019-02-18T08:27:49.021Z,98.70
2019-02-18T08:30:19.091Z,98.90
2019-02-18T08:32:49.438Z,88.90
2019-02-18T08:35:19.660Z,87.90
2019-02-18T08:37:49.618Z,87.60
2019-02-18T08:40:22.385Z,97.60
2019-02-18T08:42:51.446Z,86.40
2019-02-18T08:45:21.451Z,97.20
2019-02-18T08:47:51.475Z,96.90
2019-02-18T08:50:21.700Z,96.70
2019-02-18T08:52:51.962Z,84.60
2019-02-18T08:55:21.899Z,97.00
2019-02-18T08:57:52.649Z,84.90
2019-02-18T09:00:22.883Z,96.10
2019-02-18T09:02:53.895Z,96.00
2019-02-18T09:05:24.160Z,95.90
2019-02-18T09:07:54.780Z,83.00
2019-02-18T09:10:32.940Z,83.10
2019-02-18T09:12:56.709Z,83.50
2019-02-18T09:18:00.005Z,96.00
2019-02-18T09:20:30.078Z,96.20
2019-02-18T09:23:10.763Z,95.50
2019-02-18T09:25:43.570Z,95.40
2019-02-18T09:28:13.751Z,95.30
2019-02-18T09:30:45.705Z,95.80
2019-02-18T09:33:16.840Z,95.90
2019-02-18T09:35:47.863Z,95.40
2019-02-18T09:38:25.052Z,95.70
2019-02-18T09:40:51.622Z,82.10
2019-02-18T09:43:23.281Z,96.00
2019-02-18T09:45:53.271Z,95.60
2019-02-18T09:48:23.287Z,95.30
2019-02-18T09:50:53.195Z,95.70
2019-02-18T09:53:23.335Z,95.90
2019-02-18T09:55:53.322Z,82.70
2019-02-18T09:58:23.559Z,96.20
2019-02-18T10:00:53.625Z,83.30
2019-02-18T10:05:54.900Z,83.80
2019-02-18T10:08:25.001Z,85.00
2019-02-18T10:10:56.278Z,97.50
2019-02-18T10:13:26.713Z,85.50
2019-02-18T10:15:57.521Z,97.60
2019-02-18T10:18:27.878Z,97.70
2019-02-18T10:23:27.814Z,97.60
2019-02-18T10:25:57.974Z,97.00
2019-02-18T10:28:28.128Z,84.80
2019-02-18T10:30:58.211Z,96.50
2019-02-18T10:33:28.311Z,96.70
2019-02-18T10:35:58.431Z,95.50
2019-02-18T10:38:28.512Z,96.40
2019-02-18T10:41:06.383Z,95.90
2019-02-18T10:43:32.693Z,96.00
2019-02-18T10:46:02.343Z,81.80
2019-02-18T10:48:32.565Z,82.20
2019-02-18T10:51:02.834Z,81.20
2019-02-18T10:53:33.023Z,94.80
2019-02-18T10:56:03.164Z,94.30
2019-02-18T10:58:33.447Z,94.00
2019-02-18T11:01:04.205Z,94.00
2019-02-18T11:03:34.294Z,93.60
2019-02-18T11:06:04.772Z,77.80
2019-02-18T11:08:35.046Z,93.00
2019-02-18T11:16:03.927Z,74.60
2019-02-18T11:18:34.173Z,91.50
2019-02-18T11:21:04.407Z,91.50
2019-02-18T11:28:35.274Z,91.40
2019-02-18T11:31:05.290Z,91.50
2019-02-18T11:33:35.427Z,91.90
2019-02-18T11:36:08.500Z,92.30
2019-02-18T11:38:38.753Z,92.70
2019-02-18T11:41:09.503Z,92.80
2019-02-18T11:43:39.567Z,92.80
2019-02-18T11:48:39.716Z,92.50
2019-02-18T11:53:39.335Z,91.70
2019-02-18T11:58:38.936Z,91.20
2019-02-18T12:01:09.366Z,85.00
2019-02-18T12:03:39.796Z,91.10
2019-02-18T12:06:14.275Z,91.20
2019-02-18T12:08:46.276Z,91.40
2019-02-18T12:11:16.521Z,91.10
2019-02-18T12:13:46.816Z,91.30
2019-02-18T12:16:17.876Z,91.20
2019-02-18T12:18:48.084Z,91.50
2019-02-18T12:21:18.199Z,91.40
2019-02-18T12:23:48.647Z,90.90
2019-02-18T12:26:19.290Z,90.60
2019-02-18T12:28:49.846Z,91.00
2019-02-18T12:33:53.407Z,91.80
2019-02-18T12:38:54.253Z,91.30
2019-02-18T12:41:24.797Z,91.50
2019-02-18T12:43:55.448Z,91.50
2019-02-18T12:46:27.726Z,91.70
2019-02-18T12:48:58.046Z,92.10
2019-02-18T12:51:28.567Z,92.90
2019-02-18T12:54:09.474Z,93.10
2019-02-18T12:56:31.165Z,93.40
2019-02-18T12:59:01.407Z,93.40
2019-02-18T13:01:32.126Z,93.50
2019-02-18T13:04:02.893Z,93.80
2019-02-18T13:09:05.117Z,77.40
2019-02-18T13:11:37.723Z,94.00
2019-02-18T13:14:08.208Z,94.10
2019-02-18T13:16:38.228Z,94.10
2019-02-18T13:19:09.491Z,79.40
2019-02-18T13:21:40.082Z,94.60
2019-02-18T13:24:10.616Z,94.90
2019-02-18T13:29:11.061Z,95.30
2019-02-18T13:34:11.272Z,95.90
2019-02-18T13:36:41.512Z,91.60
2019-02-18T13:39:11.857Z,96.20
2019-02-18T13:44:12.371Z,96.20
2019-02-18T13:46:43.323Z,96.20
2019-02-18T13:49:14.648Z,96.20
2019-02-18T13:51:44.771Z,96.10
2019-02-18T13:54:15.314Z,96.00
2019-02-18T13:56:45.322Z,96.10
2019-02-18T13:59:15.763Z,96.10
2019-02-18T14:01:46.074Z,96.10
2019-02-18T14:04:16.207Z,96.00
2019-02-18T14:06:46.398Z,95.90
2019-02-18T14:09:16.532Z,95.80
2019-02-18T14:11:46.519Z,95.60
2019-02-18T14:14:16.886Z,95.80
2019-02-18T14:16:47.278Z,95.70
2019-02-18T14:19:18.171Z,94.60
2019-02-18T14:21:48.461Z,95.80
2019-02-18T14:24:18.665Z,94.80
2019-02-18T14:26:48.763Z,95.90
2019-02-18T14:29:19.126Z,96.30
2019-02-18T14:31:49.116Z,95.70
2019-02-18T14:34:19.276Z,95.90
2019-02-18T14:36:49.390Z,96.30
2019-02-18T14:39:24.556Z,96.40
2019-02-18T14:41:54.829Z,96.50
2019-02-18T14:44:25.264Z,96.40
2019-02-18T14:46:56.485Z,96.80
2019-02-18T14:49:26.596Z,97.00
2019-02-18T14:51:56.722Z,97.20
2019-02-18T14:54:27.049Z,97.40
2019-02-18T14:56:57.318Z,97.30
2019-02-18T14:59:27.764Z,97.60
2019-02-18T15:01:58.290Z,97.80
2019-02-18T15:04:28.577Z,97.90
2019-02-18T15:06:58.575Z,98.10
2019-02-18T15:09:29.000Z,98.20
2019-02-18T15:11:59.084Z,98.50
2019-02-18T15:14:30.344Z,98.70
2019-02-18T15:17:00.691Z,98.80
2019-02-18T15:19:31.104Z,99.10
2019-02-18T15:22:00.999Z,99.10
2019-02-18T15:24:31.361Z,99.30
2019-02-18T15:27:01.633Z,99.60
2019-02-18T15:29:32.974Z,99.60
2019-02-18T15:32:03.280Z,99.70
2019-02-18T15:34:33.311Z,96.30
2019-02-18T15:37:03.406Z,99.90
2019-02-18T15:39:33.769Z,99.90
2019-02-18T15:42:03.957Z,99.90
2019-02-18T15:44:34.251Z,99.90
2019-02-18T15:47:05.345Z,99.50
2019-02-18T15:49:35.799Z,99.90
2019-02-18T15:52:06.262Z,99.90
2019-02-18T15:54:38.260Z,99.90
2019-02-18T15:57:08.691Z,99.90
2019-02-18T15:59:39.347Z,99.90
2019-02-18T16:02:10.487Z,99.90
2019-02-18T16:04:40.831Z,99.90
2019-02-18T16:07:10.980Z,99.90
2019-02-18T16:09:41.770Z,99.90
2019-02-18T16:12:13.772Z,93.30
2019-02-18T16:14:44.140Z,99.90
2019-02-18T16:19:43.998Z,99.90
2019-02-18T16:22:14.486Z,94.20
2019-02-18T16:24:45.200Z,99.90
2019-02-18T16:27:15.578Z,99.90
2019-02-18T16:29:45.681Z,99.90
2019-02-18T16:32:16.088Z,99.90
2019-02-18T16:34:46.314Z,99.90
2019-02-18T16:37:17.141Z,99.90
2019-02-18T16:39:47.577Z,99.90
2019-02-18T16:42:18.229Z,99.90
2019-02-18T16:47:19.172Z,99.90
2019-02-18T16:49:49.695Z,99.90
2019-02-18T16:52:19.844Z,99.90
2019-02-18T16:54:50.023Z,99.90
2019-02-18T16:57:20.347Z,99.90
2019-02-18T16:59:50.639Z,99.90
2019-02-18T17:02:20.870Z,99.90
2019-02-18T17:04:51.793Z,99.90
2019-02-18T17:07:21.858Z,99.90
2019-02-18T17:09:52.302Z,99.90
2019-02-18T17:12:23.008Z,99.90
2019-02-18T17:14:53.217Z,99.90
2019-02-18T17:17:23.635Z,99.90
2019-02-18T17:19:53.864Z,99.90
2019-02-18T17:22:24.503Z,99.90
2019-02-18T17:24:55.720Z,99.90
2019-02-18T17:27:26.138Z,99.90
2019-02-18T17:34:56.170Z,99.90
2019-02-18T17:37:26.319Z,99.90
2019-02-18T17:39:56.561Z,99.90
2019-02-18T17:44:57.109Z,99.90
2019-02-18T17:49:58.154Z,99.90
2019-02-18T17:52:28.480Z,99.90
2019-02-18T17:55:00.105Z,99.90
2019-02-18T17:57:30.424Z,99.90
2019-02-18T18:00:00.866Z,99.90
2019-02-18T18:02:31.962Z,99.90
2019-02-18T18:05:02.126Z,99.90
2019-02-18T18:07:32.433Z,99.90
2019-02-18T18:10:02.726Z,99.90
2019-02-18T18:12:32.972Z,99.90
2019-02-18T18:15:03.437Z,99.90
2019-02-18T18:17:34.499Z,99.90
2019-02-18T18:20:05.678Z,99.90
2019-02-18T18:22:36.010Z,99.90
2019-02-18T18:25:08.685Z,99.90
2019-02-18T18:27:39.099Z,99.90
2019-02-18T18:30:12.300Z,99.90
2019-02-18T18:32:42.723Z,99.90
2019-02-18T18:35:13.325Z,99.90
2019-02-18T18:37:43.553Z,99.90
2019-02-18T18:40:16.199Z,99.90
2019-02-18T18:42:46.725Z,99.90
2019-02-18T18:45:18.338Z,99.90
2019-02-18T18:47:49.621Z,99.90
2019-02-18T18:50:21.860Z,99.90
2019-02-18T18:52:52.056Z,99.90
2019-02-18T18:55:22.071Z,99.90
2019-02-18T19:00:27.378Z,99.90
2019-02-18T19:02:58.114Z,99.90
2019-02-18T19:07:57.856Z,99.90
2019-02-18T19:10:28.257Z,99.90
2019-02-18T19:12:58.481Z,99.90
2019-02-18T19:18:06.481Z,99.90
2019-02-18T19:20:36.986Z,99.90
2019-02-18T19:23:07.713Z,99.90
2019-02-18T19:33:08.245Z,99.90
2019-02-18T19:43:10.933Z,99.90
2019-02-18T19:45:41.695Z,99.90
2019-02-18T19:48:20.065Z,99.90
2019-02-18T19:50:52.779Z,99.90
2019-02-18T19:55:53.380Z,99.90
2019-02-18T19:58:23.979Z,99.90
2019-02-18T20:00:55.132Z,99.90
2019-02-18T20:03:25.535Z,99.90
2019-02-18T20:05:56.215Z,99.90
2019-02-18T20:10:56.817Z,99.90
2019-02-18T20:15:57.216Z,99.90
2019-02-18T20:20:57.981Z,99.90
2019-02-18T20:23:28.814Z,99.90
2019-02-18T20:36:00.540Z,99.90
2019-02-18T20:41:01.054Z,99.90
2019-02-18T20:46:01.656Z,99.90
2019-02-18T20:48:33.333Z,99.90
2019-02-18T20:51:03.708Z,99.90
2019-02-18T20:53:33.932Z,99.90
2019-02-18T21:13:36.331Z,99.90
2019-02-18T21:16:07.644Z,99.90
2019-02-18T21:18:38.012Z,99.90
2019-02-18T21:21:08.423Z,99.90
2019-02-18T21:23:38.573Z,99.90
2019-02-18T21:28:39.052Z,99.90
2019-02-18T21:31:09.467Z,99.90
2019-02-18T21:33:39.403Z,99.90
2019-02-18T21:36:11.414Z,99.90
2019-02-18T21:38:41.569Z,99.90
2019-02-18T21:41:12.278Z,99.90
2019-02-18T21:43:42.599Z,99.90
2019-02-18T21:46:12.840Z,99.90
2019-02-18T21:48:44.001Z,99.90
2019-02-18T21:51:14.321Z,99.90
2019-02-18T21:53:44.321Z,99.90
2019-02-18T21:56:16.567Z,99.90
2019-02-18T21:58:46.927Z,99.90
2019-02-18T22:01:17.129Z,99.90
2019-02-18T22:03:47.370Z,99.90
2019-02-18T22:06:17.632Z,99.90
2019-02-18T22:08:48.130Z,99.90
2019-02-18T22:11:18.860Z,99.90
2019-02-18T22:13:49.052Z,99.90
2019-02-18T22:18:48.967Z,99.90
2019-02-18T22:21:19.395Z,99.90
2019-02-18T22:26:19.440Z,99.90
2019-02-18T22:28:49.655Z,99.90
2019-02-18T22:33:50.822Z,99.90
2019-02-18T22:36:21.239Z,99.90
2019-02-18T22:38:51.480Z,99.90
2019-02-18T22:41:21.967Z,99.90
2019-02-18T22:46:22.127Z,99.90
2019-02-18T22:48:53.281Z,99.90
2019-02-18T22:51:24.100Z,99.90
2019-02-18T22:53:54.065Z,99.90
2019-02-18T22:56:24.420Z,99.90
2019-02-18T22:58:54.938Z,99.90
2019-02-18T23:01:25.792Z,99.90
2019-02-18T23:03:56.374Z,99.90
2019-02-18T23:06:27.082Z,99.90
2019-02-18T23:08:57.563Z,99.90
2019-02-18T23:11:27.690Z,99.90
2019-02-18T23:13:57.891Z,99.90
2019-02-18T23:16:28.020Z,99.90
2019-02-18T23:18:58.181Z,99.90
2019-02-18T23:21:29.820Z,99.90
2019-02-18T23:24:01.476Z,99.90
2019-02-18T23:26:32.023Z,99.90
2019-02-18T23:29:02.221Z,99.90
2019-02-18T23:31:32.591Z,99.90
2019-02-18T23:34:03.279Z,99.90
2019-02-18T23:36:33.545Z,99.90
2019-02-18T23:39:04.108Z,99.90
2019-02-18T23:41:35.856Z,99.90
2019-02-18T23:44:06.207Z,99.90
2019-02-18T23:46:36.379Z,99.90
2019-02-18T23:49:08.147Z,99.90
2019-02-18T23:51:38.547Z,99.90
2019-02-18T23:54:08.739Z,99.90
2019-02-18T23:56:38.806Z,99.90
2019-02-18T23:59:08.734Z,99.90
